createdAt,value
2019-04-22T00:01:25.278Z,13.30
2019-04-22T00:06:48.374Z,13.28
2019-04-22T00:11:54.244Z,13.23
2019-04-22T00:17:00.673Z,13.17
2019-04-22T00:22:02.840Z,13.11
2019-04-22T00:27:05.209Z,13.01
2019-04-22T00:32:05.619Z,12.91
2019-04-22T00:37:07.915Z,12.86
2019-04-22T00:42:15.340Z,12.82
2019-04-22T00:47:25.210Z,12.79
2019-04-22T00:52:18.409Z,12.76
2019-04-22T00:57:26.296Z,12.72
2019-04-22T01:02:27.703Z,12.68
2019-04-22T01:07:32.194Z,12.67
2019-04-22T01:12:37.768Z,12.64
2019-04-22T01:17:40.455Z,12.59
2019-04-22T01:22:38.170Z,12.54
2019-04-22T01:27:34.470Z,12.49
2019-04-22T01:32:31.117Z,12.46
2019-04-22T01:37:45.671Z,12.41
2019-04-22T01:43:02.164Z,12.35
2019-04-22T01:48:03.927Z,12.32
2019-04-22T01:53:08.631Z,12.25
2019-04-22T01:58:07.498Z,12.18
2019-04-22T02:03:12.480Z,12.14
2019-04-22T02:08:25.478Z,12.08
2019-04-22T02:13:23.819Z,12.04
2019-04-22T02:18:26.283Z,12.01
2019-04-22T02:59:02.399Z,11.54
2019-04-22T03:04:04.572Z,11.48
2019-04-22T03:09:07.646Z,11.44
2019-04-22T03:14:04.758Z,11.38
2019-04-22T03:19:22.858Z,11.33
2019-04-22T03:24:20.533Z,11.28
2019-04-22T03:29:14.986Z,11.20
2019-04-22T03:35:14.148Z,11.16
2019-04-22T03:39:41.708Z,11.08
2019-04-22T03:54:53.883Z,10.90
2019-04-22T03:59:46.078Z,10.84
2019-04-22T04:09:49.293Z,10.76
2019-04-22T04:14:53.957Z,10.71
2019-04-22T04:30:19.001Z,10.61
2019-04-22T04:40:26.845Z,10.57
2019-04-22T04:50:20.617Z,10.52
2019-04-22T05:05:26.589Z,10.54
2019-04-22T05:10:42.707Z,10.60
2019-04-22T05:15:38.014Z,10.65
2019-04-22T05:21:02.925Z,10.69
2019-04-22T05:25:39.137Z,10.73
2019-04-22T05:30:39.465Z,10.77
2019-04-22T05:35:51.449Z,10.82
2019-04-22T05:40:49.657Z,10.88
2019-04-22T05:45:58.851Z,10.93
2019-04-22T05:51:01.130Z,10.97
2019-04-22T05:56:01.823Z,11.05
2019-04-22T06:06:23.370Z,11.25
2019-04-22T06:11:22.913Z,11.37
2019-04-22T06:16:18.277Z,11.52
2019-04-22T06:21:26.635Z,11.67
2019-04-22T06:31:36.958Z,11.98
2019-04-22T06:36:37.465Z,12.18
2019-04-22T06:41:42.993Z,12.41
2019-04-22T06:46:39.945Z,12.62
2019-04-22T06:51:45.340Z,12.85
2019-04-22T06:56:48.490Z,13.10
2019-04-22T07:01:59.365Z,13.40
2019-04-22T07:07:02.204Z,13.72
2019-04-22T07:12:02.155Z,14.04
2019-04-22T07:17:02.131Z,14.35
2019-04-22T07:22:11.272Z,14.67
2019-04-22T07:27:13.087Z,14.90
2019-04-22T07:32:18.588Z,14.93
2019-04-22T07:37:28.263Z,15.04
2019-04-22T07:42:28.174Z,15.27
2019-04-22T07:52:29.205Z,15.87
2019-04-22T07:57:32.716Z,16.22
2019-04-22T08:02:39.142Z,16.56
2019-04-22T08:07:43.565Z,16.89
2019-04-22T08:12:47.427Z,17.48
2019-04-22T08:17:55.116Z,18.18
2019-04-22T08:22:51.075Z,18.61
2019-04-22T08:27:56.807Z,18.74
2019-04-22T08:33:01.069Z,18.94
2019-04-22T08:43:20.963Z,19.72
2019-04-22T08:48:23.086Z,19.99
2019-04-22T08:53:31.662Z,20.27
2019-04-22T08:58:35.556Z,20.43
2019-04-22T09:03:37.974Z,20.63
2019-04-22T09:08:42.387Z,20.79
2019-04-22T09:13:53.184Z,21.02
2019-04-22T09:18:48.255Z,21.38
2019-04-22T09:23:58.461Z,21.76
2019-04-22T09:28:59.930Z,22.06
2019-04-22T09:33:59.706Z,22.50
2019-04-22T09:39:06.570Z,22.70
2019-04-22T09:44:28.754Z,22.88
2019-04-22T09:54:22.024Z,23.60
2019-04-22T09:59:22.681Z,23.77
2019-04-22T10:04:21.220Z,24.02
2019-04-22T10:09:42.913Z,24.10
2019-04-22T10:14:32.413Z,24.33
2019-04-22T10:19:37.181Z,24.68
2019-04-22T10:24:39.128Z,24.86
2019-04-22T10:29:47.332Z,25.07
2019-04-22T10:34:34.033Z,25.00
2019-04-22T10:39:37.843Z,25.23
2019-04-22T10:44:30.905Z,25.56
2019-04-22T10:49:34.083Z,25.71
2019-04-22T10:54:35.905Z,26.08
2019-04-22T10:59:38.540Z,26.14
2019-04-22T11:04:40.574Z,26.38
2019-04-22T11:09:52.096Z,26.53
2019-04-22T11:14:45.905Z,26.67
2019-04-22T11:19:49.851Z,26.86
2019-04-22T11:24:52.884Z,27.14
2019-04-22T11:29:55.427Z,27.25
2019-04-22T11:34:58.052Z,27.13
2019-04-22T11:40:11.446Z,27.04
2019-04-22T11:45:05.473Z,27.03
2019-04-22T11:50:08.056Z,27.09
2019-04-22T11:55:10.903Z,27.12
2019-04-22T12:00:12.759Z,27.12
2019-04-22T12:05:14.386Z,26.98
2019-04-22T12:10:28.533Z,26.97
2019-04-22T12:15:19.458Z,27.09
2019-04-22T12:20:21.721Z,27.13
2019-04-22T12:25:34.668Z,27.13
2019-04-22T12:30:28.018Z,27.25
2019-04-22T12:35:30.384Z,27.16
2019-04-22T12:40:41.316Z,27.09
2019-04-22T12:45:36.298Z,27.28
2019-04-22T12:50:41.787Z,27.36
2019-04-22T12:55:42.038Z,27.36
2019-04-22T13:00:44.922Z,27.40
2019-04-22T13:05:47.055Z,27.48
2019-04-22T13:10:55.525Z,27.40
2019-04-22T13:15:53.126Z,27.61
2019-04-22T13:20:54.907Z,27.80
2019-04-22T13:25:58.864Z,27.78
2019-04-22T13:31:02.025Z,27.97
2019-04-22T13:36:05.808Z,28.19
2019-04-22T13:41:21.089Z,28.41
2019-04-22T13:46:12.354Z,28.62
2019-04-22T13:51:50.065Z,28.79
2019-04-22T13:56:40.318Z,28.87
2019-04-22T14:01:20.907Z,29.11
2019-04-22T14:06:22.734Z,29.25
2019-04-22T14:11:34.508Z,29.44
2019-04-22T14:16:28.968Z,29.68
2019-04-22T14:21:30.705Z,29.89
2019-04-22T14:26:44.815Z,29.98
2019-04-22T14:31:36.169Z,29.94
2019-04-22T14:36:39.268Z,29.96
2019-04-22T14:41:57.382Z,29.83
2019-04-22T14:52:11.725Z,29.86
2019-04-22T14:56:52.144Z,30.08
2019-04-22T15:01:54.088Z,29.85
2019-04-22T15:06:56.988Z,29.77
2019-04-22T15:12:11.071Z,30.10
2019-04-22T15:17:02.646Z,29.95
2019-04-22T15:22:05.034Z,30.01
2019-04-22T15:27:06.819Z,29.97
2019-04-22T15:32:09.366Z,29.82
2019-04-22T15:37:11.957Z,29.88
2019-04-22T15:42:21.840Z,29.80
2019-04-22T15:47:18.671Z,29.78
2019-04-22T15:52:30.276Z,29.63
2019-04-22T15:57:24.699Z,29.59
2019-04-22T16:02:27.811Z,29.62
2019-04-22T16:07:30.022Z,29.52
2019-04-22T16:12:39.867Z,29.53
2019-04-22T16:17:35.035Z,29.42
2019-04-22T16:22:36.991Z,29.25
2019-04-22T16:27:38.689Z,29.19
2019-04-22T16:32:41.490Z,29.26
2019-04-22T16:37:43.068Z,29.42
2019-04-22T16:42:52.480Z,30.18
2019-04-22T16:47:49.359Z,30.70
2019-04-22T16:52:52.380Z,29.82
2019-04-22T16:57:54.664Z,29.45
2019-04-22T17:02:56.765Z,29.09
2019-04-22T17:07:58.686Z,28.77
2019-04-22T17:13:05.951Z,28.62
2019-04-22T17:18:05.479Z,28.37
2019-04-22T17:23:07.456Z,28.19
2019-04-22T17:28:09.794Z,27.86
2019-04-22T17:33:12.731Z,27.60
2019-04-22T17:38:26.162Z,27.31
2019-04-22T17:43:47.994Z,26.93
2019-04-22T17:48:40.699Z,26.59
2019-04-22T17:53:55.076Z,26.25
2019-04-22T17:58:51.328Z,25.93
2019-04-22T18:03:39.164Z,25.65
2019-04-22T18:08:56.415Z,25.36
2019-04-22T18:14:15.778Z,25.15
2019-04-22T18:19:08.918Z,24.84
2019-04-22T18:23:55.375Z,24.50
2019-04-22T18:29:14.399Z,24.17
2019-04-22T18:34:08.334Z,23.84
2019-04-22T18:39:25.259Z,23.09
2019-04-22T18:44:25.120Z,23.09
2019-04-22T18:49:24.441Z,22.84
2019-04-22T18:54:32.212Z,22.55
2019-04-22T18:59:18.564Z,22.30
2019-04-22T19:04:22.084Z,21.98
2019-04-22T19:09:55.288Z,21.76
2019-04-22T19:14:52.842Z,21.39
2019-04-22T19:19:57.912Z,21.20
2019-04-22T19:24:51.080Z,20.97
2019-04-22T19:29:57.650Z,20.78
2019-04-22T19:34:57.327Z,20.59
2019-04-22T19:40:09.585Z,20.40
2019-04-22T19:45:08.832Z,20.26
2019-04-22T19:50:16.493Z,20.06
2019-04-22T19:55:19.516Z,19.84
2019-04-22T20:00:18.434Z,19.64
2019-04-22T20:05:25.917Z,19.47
2019-04-22T20:10:25.075Z,19.31
2019-04-22T20:15:22.629Z,19.11
2019-04-22T20:20:32.966Z,18.91
2019-04-22T20:25:34.791Z,18.78
2019-04-22T20:30:39.782Z,18.63
2019-04-22T20:35:43.589Z,18.47
2019-04-22T20:40:42.538Z,18.36
2019-04-22T20:45:51.142Z,18.21
2019-04-22T20:50:52.895Z,18.05
2019-04-22T20:55:58.838Z,17.92
2019-04-22T21:00:55.741Z,17.79
2019-04-22T21:05:56.387Z,17.63
2019-04-22T21:11:04.217Z,17.53
2019-04-22T21:16:20.463Z,17.40
2019-04-22T21:21:20.367Z,17.27
2019-04-22T21:26:21.358Z,17.15
2019-04-22T21:31:23.702Z,17.07
2019-04-22T21:36:33.816Z,16.94
2019-04-22T21:41:26.583Z,16.80
2019-04-22T21:46:35.647Z,16.68
2019-04-22T21:51:47.662Z,16.60
2019-04-22T21:56:57.569Z,16.47
2019-04-22T22:06:39.974Z,16.24
2019-04-22T22:11:50.798Z,16.14
2019-04-22T22:16:47.269Z,16.02
2019-04-22T22:22:13.541Z,15.89
2019-04-22T22:27:04.954Z,15.75
2019-04-22T22:32:11.654Z,15.66
2019-04-22T22:37:01.492Z,15.54
2019-04-22T22:41:54.131Z,15.46
2019-04-22T22:47:16.575Z,15.40
2019-04-22T22:57:27.634Z,15.20
2019-04-22T23:02:34.217Z,15.08
2019-04-22T23:07:36.840Z,14.97
2019-04-22T23:12:42.356Z,14.85
2019-04-22T23:17:24.213Z,14.78
2019-04-22T23:22:28.510Z,14.67
2019-04-22T23:27:40.651Z,14.56
2019-04-22T23:32:35.883Z,14.45
2019-04-22T23:37:50.995Z,14.41
2019-04-22T23:42:52.928Z,14.31
2019-04-22T23:47:46.123Z,14.23
2019-04-22T23:52:59.452Z,14.15
2019-04-22T23:58:02.989Z,14.08
